Time;durP1;ratioP1;P1;durP2;ratioP2;P2;SDS_P1;SDS_P2;PMS_P1;PMS_P2;Temp;Humidity;BMP_temperature;BMP_pressure;BME280_temperature;BME280_humidity;BME280_pressure;Samples;Min_cycle;Max_cycle;Signal;HPM_P1;HPM_P2
2023/05/09 00:01:46;;;;;;;6.20;4.13;;;14.20;99.90;;;;;;4994504;28;20019;-72
2023/05/09 00:04:12;;;;;;;6.22;4.13;;;14.10;99.90;;;;;;4994720;28;20062;-73
2023/05/09 00:06:37;;;;;;;6.55;3.85;;;14.10;99.90;;;;;;4993816;28;20031;-70
2023/05/09 00:09:03;;;;;;;13.18;4.28;;;14.10;99.90;;;;;;4994487;28;20121;-70
2023/05/09 00:11:29;;;;;;;8.68;3.80;;;14.10;99.90;;;;;;4994383;28;20118;-70
2023/05/09 00:13:55;;;;;;;7.28;4.10;;;14.00;99.90;;;;;;4993665;28;20054;-69
2023/05/09 00:16:22;;;;;;;7.10;4.10;;;14.00;99.90;;;;;;4994238;28;20121;-70
2023/05/09 00:18:48;;;;;;;8.68;4.00;;;14.00;99.90;;;;;;4994554;28;20031;-71
2023/05/09 00:21:14;;;;;;;7.38;4.03;;;13.90;99.90;;;;;;4994078;28;20030;-71
2023/05/09 00:23:40;;;;;;;6.90;4.25;;;13.90;99.90;;;;;;4977007;28;20033;-70
2023/05/09 00:26:05;;;;;;;6.65;3.85;;;14.00;99.90;;;;;;4993859;28;20030;-71
2023/05/09 00:28:31;;;;;;;8.32;3.90;;;13.90;99.90;;;;;;4993684;28;20081;-70
2023/05/09 00:30:57;;;;;;;7.75;3.92;;;13.90;99.90;;;;;;4994080;28;20514;-70
2023/05/09 00:33:25;;;;;;;8.95;4.15;;;13.80;99.90;;;;;;4993744;28;20023;-71
2023/05/09 00:35:52;;;;;;;8.85;4.22;;;13.90;99.90;;;;;;4993237;28;20051;-71
2023/05/09 00:38:18;;;;;;;7.20;3.80;;;13.80;99.90;;;;;;4993751;28;21426;-71
2023/05/09 00:40:43;;;;;;;7.60;3.78;;;13.70;99.90;;;;;;4993315;28;20023;-72
2023/05/09 00:43:09;;;;;;;11.68;3.80;;;13.70;99.90;;;;;;4993647;28;20022;-68
2023/05/09 00:45:35;;;;;;;7.47;3.53;;;13.70;99.90;;;;;;4994152;28;20050;-72
2023/05/09 00:48:00;;;;;;;8.73;3.90;;;13.70;99.90;;;;;;4993718;28;20074;-71
2023/05/09 00:50:26;;;;;;;8.70;3.60;;;13.60;99.90;;;;;;4993327;28;20035;-71
2023/05/09 00:52:52;;;;;;;8.73;3.72;;;13.60;99.90;;;;;;4993999;28;20026;-70
2023/05/09 00:55:18;;;;;;;7.85;3.35;;;13.60;99.90;;;;;;4976425;28;20038;-71
2023/05/09 00:57:44;;;;;;;6.22;4.00;;;13.60;99.90;;;;;;4993152;28;20081;-72
2023/05/09 01:00:11;;;;;;;6.70;3.33;;;13.50;99.90;;;;;;4993753;28;20109;-69
2023/05/09 01:02:42;;;;;;;7.72;3.75;;;13.50;99.90;;;;;;4992985;28;20031;-71
2023/05/09 01:05:09;;;;;;;6.07;3.78;;;13.50;99.90;;;;;;4993618;28;20062;-72
2023/05/09 01:07:43;;;;;;;6.50;3.50;;;13.50;99.90;;;;;;4976052;28;20054;-70
2023/05/09 01:10:21;;;;;;;13.38;3.63;;;13.50;99.90;;;;;;4992594;28;20026;-71
2023/05/09 01:12:58;;;;;;;8.32;3.67;;;13.40;99.90;;;;;;4992944;28;20047;-70
2023/05/09 01:15:39;;;;;;;9.35;3.75;;;13.40;99.90;;;;;;4993037;28;20141;-70
2023/05/09 01:18:16;;;;;;;8.95;3.83;;;13.40;99.90;;;;;;4992888;28;20098;-71
2023/05/09 01:20:56;;;;;;;6.10;3.60;;;13.40;99.90;;;;;;4993381;28;20031;-72
2023/05/09 01:23:41;;;;;;;7.68;3.60;;;13.30;99.90;;;;;;4993112;28;20119;-70
2023/05/09 01:26:26;;;;;;;;;;;13.30;99.90;;;;;;4993481;28;20034;-69
2023/05/09 01:29:29;;;;;;;8.18;3.70;;;13.30;99.90;;;;;;4934185;28;19905;-70
2023/05/09 01:31:56;;;;;;;7.13;3.42;;;13.30;99.90;;;;;;4974714;28;20022;-71
2023/05/09 01:34:25;;;;;;;5.47;3.50;;;13.30;99.90;;;;;;4975019;28;20038;-71
2023/05/09 01:36:55;;;;;;;6.20;3.80;;;13.20;99.90;;;;;;4992613;28;20030;-69
2023/05/09 01:39:23;;;;;;;6.80;3.65;;;13.30;99.90;;;;;;4974526;28;20056;-72
2023/05/09 01:41:51;;;;;;;5.85;3.50;;;13.20;99.90;;;;;;4993078;28;20042;-71
2023/05/09 01:44:19;;;;;;;11.02;3.80;;;13.10;99.90;;;;;;4992877;28;20022;-70
2023/05/09 01:46:45;;;;;;;4.97;3.35;;;13.10;99.90;;;;;;4992961;28;20038;-70
2023/05/09 01:49:12;;;;;;;7.57;3.75;;;13.10;99.90;;;;;;4992508;28;20035;-71
2023/05/09 01:51:40;;;;;;;9.45;3.70;;;13.10;99.90;;;;;;4992532;28;20033;-70
2023/05/09 01:54:06;;;;;;;6.38;3.65;;;13.10;99.90;;;;;;4992301;28;20023;-71
2023/05/09 01:56:32;;;;;;;9.20;3.65;;;13.00;99.90;;;;;;4975393;28;20088;-70
2023/05/09 01:58:59;;;;;;;12.43;4.03;;;13.00;99.90;;;;;;4992738;28;20018;-71
2023/05/09 02:01:25;;;;;;;6.05;3.67;;;12.90;99.90;;;;;;4992719;28;20123;-72
2023/05/09 02:03:53;;;;;;;5.75;3.83;;;13.00;99.90;;;;;;4992496;28;20492;-71
2023/05/09 02:06:21;;;;;;;7.72;3.50;;;12.90;99.90;;;;;;4991507;28;20507;-70
2023/05/09 02:08:48;;;;;;;7.55;3.75;;;12.90;99.90;;;;;;4992220;28;20045;-71
2023/05/09 02:11:14;;;;;;;8.23;3.58;;;12.90;99.90;;;;;;4992607;28;20038;-71
2023/05/09 02:13:39;;;;;;;6.95;3.50;;;12.90;99.90;;;;;;4974824;28;20054;-68
2023/05/09 02:16:09;;;;;;;6.78;3.38;;;12.90;99.90;;;;;;4992637;28;20041;-71
2023/05/09 02:18:35;;;;;;;9.43;4.00;;;12.80;99.90;;;;;;4992755;28;20026;-71
2023/05/09 02:21:01;;;;;;;6.20;3.50;;;12.80;99.90;;;;;;4974559;28;20379;-70
2023/05/09 02:23:27;;;;;;;8.30;3.80;;;12.80;99.90;;;;;;4991830;28;20027;-71
2023/05/09 02:25:53;;;;;;;6.28;3.30;;;12.70;99.90;;;;;;4992561;28;20034;-71
2023/05/09 02:28:22;;;;;;;6.00;3.42;;;12.70;99.90;;;;;;4974067;28;20392;-70
2023/05/09 02:30:49;;;;;;;10.50;3.83;;;12.70;99.90;;;;;;4991950;28;20019;-71
2023/05/09 02:33:15;;;;;;;7.95;4.03;;;12.60;99.90;;;;;;4992331;28;20027;-73
2023/05/09 02:35:43;;;;;;;8.35;3.70;;;12.50;99.90;;;;;;4991991;28;20018;-70
2023/05/09 02:38:10;;;;;;;6.40;3.45;;;12.60;99.90;;;;;;4992481;28;20023;-71
2023/05/09 02:40:36;;;;;;;6.45;3.55;;;12.50;99.90;;;;;;4991565;28;20036;-71
2023/05/09 02:43:01;;;;;;;6.35;3.40;;;12.50;99.90;;;;;;4991949;28;20030;-70
2023/05/09 02:45:27;;;;;;;5.75;3.17;;;12.50;99.90;;;;;;4974862;28;20034;-71
2023/05/09 02:47:52;;;;;;;7.25;4.20;;;12.50;99.90;;;;;;4991952;28;20019;-71
2023/05/09 02:50:18;;;;;;;8.18;3.95;;;12.40;99.90;;;;;;4993850;28;20083;-70
2023/05/09 02:52:44;;;;;;;6.10;3.38;;;12.40;99.90;;;;;;4978913;28;20053;-71
2023/05/09 02:55:09;;;;;;;6.05;3.90;;;12.40;99.90;;;;;;4978405;28;20122;-70
2023/05/09 02:57:35;;;;;;;8.10;3.70;;;12.40;99.90;;;;;;4995543;28;20041;-69
2023/05/09 03:00:01;;;;;;;6.85;3.33;;;12.30;99.90;;;;;;4995967;28;20041;-72
2023/05/09 03:02:27;;;;;;;8.52;4.05;;;12.30;99.90;;;;;;4995399;28;20391;-71
2023/05/09 03:04:52;;;;;;;11.80;3.90;;;12.30;99.90;;;;;;4995171;28;20058;-72
2023/05/09 03:07:18;;;;;;;7.60;3.50;;;12.30;99.90;;;;;;4995014;28;20026;-72
2023/05/09 03:09:43;;;;;;;6.85;3.55;;;12.20;99.90;;;;;;4977740;28;20081;-73
2023/05/09 03:12:09;;;;;;;8.80;3.55;;;12.20;99.90;;;;;;4995787;28;20038;-72
2023/05/09 03:14:35;;;;;;;8.73;3.83;;;12.20;99.90;;;;;;4995447;28;20023;-72
2023/05/09 03:17:01;;;;;;;13.05;4.10;;;12.20;99.90;;;;;;4994798;28;20519;-72
2023/05/09 03:19:26;;;;;;;7.85;3.33;;;12.10;99.90;;;;;;4995554;28;20023;-72
2023/05/09 03:21:52;;;;;;;9.07;3.88;;;12.10;99.90;;;;;;4995037;28;20034;-72
2023/05/09 03:24:17;;;;;;;9.15;4.00;;;12.10;99.90;;;;;;4977064;28;20019;-73
2023/05/09 03:26:43;;;;;;;6.25;3.80;;;12.10;99.90;;;;;;4995484;28;20153;-71
2023/05/09 03:29:08;;;;;;;5.45;3.75;;;12.00;99.90;;;;;;4995584;28;20075;-72
2023/05/09 03:31:34;;;;;;;6.68;4.03;;;12.00;99.90;;;;;;4994981;28;20050;-72
2023/05/09 03:34:00;;;;;;;7.20;3.78;;;12.00;99.90;;;;;;4994989;28;20027;-72
2023/05/09 03:36:26;;;;;;;6.70;3.45;;;11.90;99.90;;;;;;4994758;28;20039;-71
2023/05/09 03:38:51;;;;;;;11.07;4.05;;;12.00;99.90;;;;;;4995391;28;20077;-72
2023/05/09 03:41:17;;;;;;;13.48;4.18;;;11.90;99.90;;;;;;4977014;28;20384;-70
2023/05/09 03:43:43;;;;;;;10.25;3.90;;;11.90;99.90;;;;;;4994769;28;20111;-71
2023/05/09 03:46:09;;;;;;;7.47;3.83;;;11.90;99.90;;;;;;4995143;28;20034;-71
2023/05/09 03:48:34;;;;;;;4.90;3.63;;;11.90;99.90;;;;;;4977218;28;20023;-71
2023/05/09 03:51:01;;;;;;;7.50;3.67;;;11.90;99.90;;;;;;4994179;28;20034;-72
2023/05/09 03:53:27;;;;;;;11.57;3.83;;;11.90;99.90;;;;;;4994790;28;20022;-72
2023/05/09 03:55:52;;;;;;;16.77;4.30;;;11.90;99.90;;;;;;4994886;28;20052;-71
2023/05/09 03:58:18;;;;;;;10.88;3.78;;;11.80;99.90;;;;;;4976874;28;20019;-71
2023/05/09 04:00:44;;;;;;;7.55;4.03;;;11.80;99.90;;;;;;4977292;28;20035;-72
2023/05/09 04:03:10;;;;;;;9.05;4.40;;;11.70;99.90;;;;;;4994323;28;20026;-72
2023/05/09 04:05:35;;;;;;;9.18;4.20;;;11.70;99.90;;;;;;4994234;28;20059;-70
2023/05/09 04:08:01;;;;;;;7.68;4.55;;;11.70;99.90;;;;;;4994266;28;20031;-72
2023/05/09 04:10:28;;;;;;;10.00;4.32;;;11.70;99.90;;;;;;4994292;28;20499;-71
2023/05/09 04:12:54;;;;;;;15.70;4.28;;;11.70;99.90;;;;;;4993590;28;20093;-71
2023/05/09 04:15:20;;;;;;;13.55;4.15;;;11.60;99.90;;;;;;4994160;28;20026;-70
2023/05/09 04:17:46;;;;;;;6.68;4.05;;;11.60;99.90;;;;;;4993444;28;20046;-70
2023/05/09 04:20:11;;;;;;;12.38;4.10;;;11.60;99.90;;;;;;4994156;28;20022;-73
2023/05/09 04:22:37;;;;;;;8.52;3.78;;;11.60;99.90;;;;;;4994565;28;20045;-71
2023/05/09 04:25:03;;;;;;;8.60;4.13;;;11.70;99.90;;;;;;4993928;28;20170;-71
2023/05/09 04:27:29;;;;;;;9.20;4.57;;;11.70;99.90;;;;;;4994017;28;20073;-71
2023/05/09 04:29:54;;;;;;;9.43;4.13;;;11.70;99.90;;;;;;4994203;28;20057;-70
2023/05/09 04:32:22;;;;;;;10.23;4.47;;;11.70;99.90;;;;;;4993649;28;20038;-71
2023/05/09 04:34:48;;;;;;;12.32;4.65;;;11.70;99.90;;;;;;4976904;28;20026;-71
2023/05/09 04:37:13;;;;;;;9.35;4.60;;;11.70;99.90;;;;;;4976214;28;20037;-72
2023/05/09 04:39:39;;;;;;;7.50;4.32;;;11.70;99.90;;;;;;4976694;28;20019;-71
2023/05/09 04:42:05;;;;;;;7.90;4.35;;;11.70;99.90;;;;;;4994159;28;20038;-71
2023/05/09 04:44:31;;;;;;;13.90;4.55;;;11.80;99.90;;;;;;4976212;28;20050;-71
2023/05/09 04:46:56;;;;;;;7.90;4.60;;;11.80;99.90;;;;;;4975891;28;20505;-71
2023/05/09 04:49:22;;;;;;;9.27;4.50;;;11.80;99.90;;;;;;4994082;28;20030;-71
2023/05/09 04:51:49;;;;;;;9.57;4.43;;;11.80;99.90;;;;;;4993569;28;20039;-71
2023/05/09 04:54:15;;;;;;;8.70;4.50;;;11.80;99.90;;;;;;4975836;28;20045;-71
2023/05/09 04:56:40;;;;;;;9.85;4.65;;;11.80;99.90;;;;;;4976526;28;20455;-72
2023/05/09 04:59:06;;;;;;;8.95;4.88;;;11.90;99.90;;;;;;4976200;28;20034;-71
2023/05/09 05:01:31;;;;;;;10.38;4.53;;;11.90;99.90;;;;;;4991832;28;20033;-72
2023/05/09 05:03:57;;;;;;;10.43;4.97;;;11.90;99.90;;;;;;4971094;28;20059;-70
2023/05/09 05:06:23;;;;;;;11.07;4.35;;;11.90;99.90;;;;;;4993152;28;20100;-69
2023/05/09 05:08:48;;;;;;;12.05;5.38;;;12.00;99.90;;;;;;4990598;28;20026;-69
2023/05/09 05:11:14;;;;;;;12.93;7.07;;;12.00;99.90;;;;;;4993537;28;20034;-72
2023/05/09 05:13:39;;;;;;;15.85;6.95;;;12.00;99.90;;;;;;4988540;28;20091;-71
2023/05/09 05:16:05;;;;;;;9.95;6.00;;;12.00;99.90;;;;;;4989160;28;20526;-69
2023/05/09 05:18:30;;;;;;;7.60;5.20;;;12.00;99.90;;;;;;4974422;28;20031;-69
2023/05/09 05:20:56;;;;;;;17.05;5.85;;;12.00;99.90;;;;;;4991425;28;20480;-70
2023/05/09 05:23:21;;;;;;;12.95;6.25;;;12.00;99.90;;;;;;4993493;28;20030;-68
2023/05/09 05:25:47;;;;;;;10.95;4.88;;;12.10;99.90;;;;;;4992400;28;20022;-70
2023/05/09 05:28:13;;;;;;;7.10;4.70;;;12.10;99.90;;;;;;4991974;28;20058;-70
2023/05/09 05:30:39;;;;;;;13.48;5.38;;;12.10;99.90;;;;;;4993389;28;20054;-68
2023/05/09 05:33:05;;;;;;;10.95;5.72;;;12.10;99.90;;;;;;4972349;28;20054;-68
2023/05/09 05:35:30;;;;;;;13.65;6.65;;;12.10;99.90;;;;;;4992942;28;20885;-69
2023/05/09 05:37:56;;;;;;;9.68;6.05;;;12.10;99.90;;;;;;4991286;28;20028;-69
2023/05/09 05:40:22;;;;;;;9.85;5.35;;;12.10;99.90;;;;;;4992977;28;20034;-68
2023/05/09 05:42:47;;;;;;;16.35;5.80;;;12.10;99.90;;;;;;4990009;28;20038;-70
2023/05/09 05:45:13;;;;;;;9.48;5.75;;;12.10;99.90;;;;;;4991618;28;20043;-68
2023/05/09 05:47:39;;;;;;;11.23;5.53;;;12.10;99.90;;;;;;4973126;28;20045;-68
2023/05/09 05:50:07;;;;;;;13.27;6.10;;;12.10;99.90;;;;;;4986451;28;20117;-69
2023/05/09 05:52:33;;;;;;;10.30;5.88;;;12.10;99.90;;;;;;4991483;28;20018;-71
2023/05/09 05:54:58;;;;;;;13.20;6.07;;;12.20;99.90;;;;;;4990320;28;20090;-69
2023/05/09 05:57:24;;;;;;;17.27;5.78;;;12.20;99.90;;;;;;4988612;28;20046;-70
2023/05/09 05:59:50;;;;;;;11.23;5.78;;;12.30;99.90;;;;;;4991462;28;20022;-70
2023/05/09 06:02:17;;;;;;;11.90;5.72;;;12.30;99.90;;;;;;4990824;28;20495;-70
2023/05/09 06:04:43;;;;;;;10.63;5.50;;;12.30;99.90;;;;;;4990296;28;20097;-69
2023/05/09 06:07:10;;;;;;;12.25;5.78;;;12.40;99.90;;;;;;4991229;28;20038;-70
2023/05/09 06:09:36;;;;;;;12.30;6.18;;;12.40;99.90;;;;;;4990727;28;20019;-69
2023/05/09 06:12:01;;;;;;;14.90;5.93;;;12.50;99.90;;;;;;4973867;28;20061;-68
2023/05/09 06:14:27;;;;;;;11.95;5.82;;;12.50;99.90;;;;;;4992169;28;20039;-69
2023/05/09 06:16:53;;;;;;;13.07;6.05;;;12.60;99.90;;;;;;4974869;28;20030;-70
2023/05/09 06:19:18;;;;;;;12.30;5.97;;;12.60;99.90;;;;;;4992629;28;20023;-68
2023/05/09 06:21:44;;;;;;;12.52;5.90;;;12.70;99.90;;;;;;4992511;28;20035;-71
2023/05/09 06:24:10;;;;;;;18.05;6.20;;;12.80;99.90;;;;;;4992740;28;20475;-69
2023/05/09 06:26:36;;;;;;;12.57;6.25;;;12.90;99.90;;;;;;4979003;28;20490;-70
2023/05/09 06:29:02;;;;;;;15.88;5.78;;;12.90;99.90;;;;;;4995691;28;20026;-70
2023/05/09 06:31:28;;;;;;;11.85;6.38;;;13.00;99.90;;;;;;4996057;28;20035;-70
2023/05/09 06:33:54;;;;;;;12.20;6.43;;;13.10;99.90;;;;;;4996547;28;20022;-68
2023/05/09 06:36:19;;;;;;;11.07;6.40;;;13.10;99.90;;;;;;4996092;28;20061;-70
2023/05/09 06:38:45;;;;;;;14.30;6.45;;;13.20;99.90;;;;;;4995558;28;20023;-69
2023/05/09 06:41:11;;;;;;;11.48;6.22;;;13.30;99.90;;;;;;4996420;28;20105;-72
2023/05/09 06:43:36;;;;;;;13.52;7.03;;;13.30;99.90;;;;;;4996084;28;20038;-68
2023/05/09 06:46:02;;;;;;;14.35;6.22;;;13.30;99.90;;;;;;4995636;28;20042;-70
2023/05/09 06:48:28;;;;;;;10.70;6.00;;;13.40;99.90;;;;;;4996222;28;20030;-69
2023/05/09 06:50:53;;;;;;;10.95;6.50;;;13.60;99.90;;;;;;4995811;28;20030;-69
2023/05/09 06:53:19;;;;;;;8.38;6.00;;;13.60;99.90;;;;;;4978238;28;20019;-69
2023/05/09 06:55:45;;;;;;;11.85;6.10;;;13.70;99.90;;;;;;4978452;28;20035;-70
2023/05/09 06:58:11;;;;;;;11.45;7.20;;;13.90;99.90;;;;;;4978116;28;20029;-71
2023/05/09 07:00:36;;;;;;;12.65;6.53;;;14.00;99.90;;;;;;4991190;28;20035;-69
2023/05/09 07:03:02;;;;;;;10.43;6.32;;;14.10;99.90;;;;;;4992832;28;20043;-70
2023/05/09 07:05:27;;;;;;;10.05;6.57;;;14.20;99.90;;;;;;4977320;28;20042;-69
2023/05/09 07:07:56;;;;;;;22.08;6.63;;;14.20;99.90;;;;;;4994555;28;20038;-70
2023/05/09 07:10:21;;;;;;;10.90;6.45;;;14.30;99.90;;;;;;4995017;28;20041;-71
2023/05/09 07:12:47;;;;;;;12.98;6.95;;;14.40;99.90;;;;;;4995044;28;20042;-69
2023/05/09 07:15:13;;;;;;;11.45;6.53;;;14.50;99.90;;;;;;4996034;28;20029;-69
2023/05/09 07:17:38;;;;;;;13.30;7.22;;;14.60;99.90;;;;;;4995367;28;20090;-67
2023/05/09 07:20:05;;;;;;;9.55;6.78;;;14.70;99.90;;;;;;4993319;28;20046;-70
2023/05/09 07:22:30;;;;;;;11.40;7.28;;;14.90;99.90;;;;;;4994885;28;20026;-69
2023/05/09 07:24:56;;;;;;;13.18;7.40;;;15.00;99.90;;;;;;4993275;28;20057;-69
2023/05/09 07:27:21;;;;;;;9.35;6.88;;;15.10;99.90;;;;;;4991219;28;20039;-71
2023/05/09 07:29:50;;;;;;;16.75;6.85;;;15.30;99.90;;;;;;4994626;28;20026;-68
2023/05/09 07:32:15;;;;;;;14.48;7.28;;;15.50;99.90;;;;;;4990661;28;20022;-70
2023/05/09 07:34:41;;;;;;;12.90;7.20;;;15.50;99.90;;;;;;4992530;28;20069;-69
2023/05/09 07:37:06;;;;;;;12.13;7.57;;;15.80;99.90;;;;;;4994809;28;20031;-69
2023/05/09 07:39:32;;;;;;;13.60;7.30;;;15.80;99.90;;;;;;4994430;28;20027;-70
2023/05/09 07:41:57;;;;;;;12.57;7.57;;;16.00;99.90;;;;;;4994466;28;21099;-71
2023/05/09 07:44:23;;;;;;;16.60;7.65;;;16.00;99.90;;;;;;4994784;28;20373;-71
2023/05/09 07:46:49;;;;;;;10.85;7.60;;;16.10;99.90;;;;;;4995142;28;20033;-69
2023/05/09 07:49:14;;;;;;;10.73;7.47;;;16.30;99.90;;;;;;4977204;28;20049;-70
2023/05/09 07:51:40;;;;;;;12.95;7.65;;;16.30;99.90;;;;;;4977638;28;20074;-69
2023/05/09 07:54:05;;;;;;;17.10;7.28;;;16.40;99.90;;;;;;4994370;28;20033;-72
2023/05/09 07:56:31;;;;;;;12.50;7.93;;;16.60;99.90;;;;;;4994370;28;20086;-70
2023/05/09 07:58:57;;;;;;;13.00;8.35;;;16.70;99.90;;;;;;4994865;28;20018;-70
2023/05/09 08:01:22;;;;;;;11.70;8.73;;;16.80;99.90;;;;;;4976996;28;20023;-68
2023/05/09 08:03:48;;;;;;;16.80;8.45;;;16.90;99.90;;;;;;4977073;28;20031;-71
2023/05/09 08:06:13;;;;;;;13.63;8.77;;;16.90;99.90;;;;;;4987772;28;20052;-72
2023/05/09 08:08:39;;;;;;;13.05;9.25;;;17.00;99.90;;;;;;4974378;28;20034;-69
2023/05/09 08:11:05;;;;;;;12.10;9.02;;;17.00;99.90;;;;;;4972101;28;20031;-74
2023/05/09 08:13:30;;;;;;;14.13;8.88;;;16.90;99.90;;;;;;4988911;28;20075;-71
2023/05/09 08:15:56;;;;;;;13.40;9.57;;;16.90;99.90;;;;;;4976547;28;20026;-71
2023/05/09 08:18:21;;;;;;;14.30;9.70;;;17.00;99.90;;;;;;4975297;28;20034;-70
2023/05/09 08:20:48;;;;;;;17.67;10.77;;;16.90;99.90;;;;;;4992835;28;20026;-70
2023/05/09 08:23:13;;;;;;;17.27;9.93;;;17.10;99.90;;;;;;4993391;28;20045;-72
2023/05/09 08:25:39;;;;;;;16.95;10.90;;;17.10;99.90;;;;;;4992185;28;20038;-71
2023/05/09 08:28:04;;;;;;;15.15;10.02;;;17.20;99.90;;;;;;4990638;28;20030;-69
2023/05/09 08:30:30;;;;;;;20.05;10.98;;;17.30;99.90;;;;;;4987002;28;20049;-68
2023/05/09 08:32:56;;;;;;;17.08;9.40;;;17.30;99.90;;;;;;4974147;28;20023;-72
2023/05/09 08:35:21;;;;;;;14.35;10.13;;;17.30;99.90;;;;;;4985999;28;20023;-72
2023/05/09 08:37:47;;;;;;;17.92;10.30;;;17.40;99.90;;;;;;4988694;28;20030;-70
2023/05/09 08:40:13;;;;;;;18.25;11.43;;;17.40;99.90;;;;;;4992038;28;20027;-70
2023/05/09 08:42:41;;;;;;;20.17;11.88;;;17.40;99.90;;;;;;4993198;28;20025;-69
2023/05/09 08:45:09;;;;;;;19.63;11.75;;;17.50;99.90;;;;;;4992930;28;20428;-69
2023/05/09 08:47:37;;;;;;;17.13;11.65;;;17.60;99.90;;;;;;4990887;28;20030;-69
2023/05/09 08:50:03;;;;;;;21.20;12.38;;;17.70;99.90;;;;;;4993042;28;21591;-72
2023/05/09 08:52:33;;;;;;;16.80;11.57;;;17.80;99.90;;;;;;4990287;28;20033;-69
2023/05/09 08:54:59;;;;;;;16.33;10.80;;;17.90;99.90;;;;;;4973567;28;20039;-73
2023/05/09 08:57:26;;;;;;;21.35;10.80;;;18.00;99.90;;;;;;4971406;28;20117;-74
2023/05/09 08:59:52;;;;;;;17.38;11.38;;;18.00;99.90;;;;;;4989206;28;20034;-71
2023/05/09 09:02:18;;;;;;;15.65;12.15;;;18.00;99.90;;;;;;4971193;28;20022;-70
2023/05/09 09:04:44;;;;;;;22.45;11.32;;;18.10;99.90;;;;;;4975341;28;20136;-69
2023/05/09 09:07:12;;;;;;;16.75;11.95;;;18.20;99.90;;;;;;4992485;28;20065;-67
2023/05/09 09:09:43;;;;;;;22.25;11.07;;;18.30;99.90;;;;;;4973860;28;20027;-74
2023/05/09 09:12:10;;;;;;;22.52;11.13;;;18.40;99.90;;;;;;4990691;28;20065;-69
2023/05/09 09:14:38;;;;;;;16.42;10.05;;;18.40;99.90;;;;;;4989656;28;20073;-75
2023/05/09 09:17:06;;;;;;;15.75;11.65;;;18.50;99.90;;;;;;4989167;28;20026;-77
2023/05/09 09:19:34;;;;;;;21.10;13.65;;;18.50;99.90;;;;;;4990512;28;20030;-72
2023/05/09 09:22:03;;;;;;;18.42;11.77;;;18.50;99.90;;;;;;4992545;28;20038;-70
2023/05/09 09:24:30;;;;;;;36.28;10.05;;;18.60;99.90;;;;;;4989629;28;20092;-74
2023/05/09 09:26:55;;;;;;;18.98;12.90;;;18.70;99.90;;;;;;4972167;28;20403;-69
2023/05/09 09:29:21;;;;;;;21.65;13.20;;;18.70;99.90;;;;;;4991307;28;20026;-69
2023/05/09 09:31:52;;;;;;;16.92;10.77;;;18.70;99.90;;;;;;4971583;28;20046;-73
2023/05/09 09:34:22;;;;;;;19.77;12.07;;;18.80;99.90;;;;;;4991553;28;20053;-71
2023/05/09 09:36:49;;;;;;;16.92;12.68;;;18.90;99.90;;;;;;4991643;28;20019;-69
2023/05/09 09:39:14;;;;;;;15.15;11.13;;;19.00;99.90;;;;;;4991681;28;20030;-70
2023/05/09 09:41:41;;;;;;;16.80;12.68;;;19.10;99.90;;;;;;4974220;28;20061;-70
2023/05/09 09:44:12;;;;;;;19.13;11.77;;;19.10;99.90;;;;;;4973358;28;20023;-74
2023/05/09 09:46:49;;;;;;;16.23;11.73;;;19.20;99.90;;;;;;4990599;28;20530;-69
2023/05/09 09:49:16;;;;;;;19.17;11.88;;;19.30;99.90;;;;;;4991623;28;20034;-70
2023/05/09 09:51:43;;;;;;;16.52;11.32;;;19.30;99.90;;;;;;4990598;28;20038;-71
2023/05/09 09:54:10;;;;;;;16.67;11.85;;;19.30;99.90;;;;;;4989631;28;20062;-71
2023/05/09 09:56:46;;;;;;;18.85;11.90;;;19.40;99.90;;;;;;4991678;28;20026;-69
2023/05/09 09:59:14;;;;;;;19.90;11.02;;;19.40;99.90;;;;;;4969752;28;20384;-73
2023/05/09 10:01:57;;;;;;;15.45;11.15;;;19.60;99.90;;;;;;4983458;28;20054;-71
2023/05/09 10:04:24;;;;;;;17.38;10.23;;;19.70;99.90;;;;;;4973935;28;20125;-72
2023/05/09 10:07:02;;;;;;;19.17;11.77;;;19.80;99.90;;;;;;4990855;28;20030;-70
2023/05/09 10:09:28;;;;;;;17.13;11.35;;;19.80;99.90;;;;;;4971923;28;20090;-73
2023/05/09 10:11:55;;;;;;;16.50;11.60;;;20.00;99.90;;;;;;4987413;28;20058;-71
2023/05/09 10:14:23;;;;;;;14.88;12.18;;;20.00;99.90;;;;;;4973339;28;20039;-69
2023/05/09 10:16:59;;;;;;;17.38;11.60;;;20.10;99.90;;;;;;4991215;28;20026;-76
2023/05/09 10:19:28;;;;;;;16.25;11.70;;;20.20;99.90;;;;;;4972459;28;20026;-69
2023/05/09 10:22:03;;;;;;;18.38;10.82;;;20.20;99.90;;;;;;4971905;28;20077;-72
2023/05/09 10:25:00;;;;;;;17.20;10.75;;;20.30;99.90;;;;;;4991988;28;20022;-73
2023/05/09 10:27:29;;;;;;;21.55;12.82;;;20.30;99.90;;;;;;4990778;28;20038;-70
2023/05/09 10:30:09;;;;;;;17.65;11.13;;;20.30;99.90;;;;;;4992022;28;20019;-68
2023/05/09 10:32:52;;;;;;;17.98;11.68;;;20.40;99.90;;;;;;4989851;28;20026;-69
2023/05/09 10:35:23;;;;;;;21.33;12.55;;;20.50;99.90;;;;;;4990797;28;20417;-70
2023/05/09 10:37:49;;;;;;;16.75;10.90;;;20.50;99.90;;;;;;4991226;28;20080;-73
2023/05/09 10:40:16;;;;;;;17.45;11.57;;;20.50;99.90;;;;;;4974280;28;20386;-70
2023/05/09 10:42:42;;;;;;;23.67;11.13;;;20.50;99.90;;;;;;4991348;28;20025;-73
2023/05/09 10:45:10;;;;;;;16.60;11.32;;;20.40;99.90;;;;;;4992090;28;20034;-71
2023/05/09 10:47:36;;;;;;;19.88;11.00;;;20.40;99.90;;;;;;4989272;28;20045;-71
2023/05/09 10:50:02;;;;;;;17.17;11.68;;;20.40;99.90;;;;;;4989878;28;20019;-70
2023/05/09 10:52:32;;;;;;;26.40;10.80;;;20.40;99.90;;;;;;4973588;28;20037;-75
2023/05/09 10:55:02;;;;;;;16.48;10.60;;;20.40;99.90;;;;;;4992073;28;20420;-71
2023/05/09 10:57:30;;;;;;;22.00;12.07;;;20.40;99.90;;;;;;4972576;28;20054;-73
2023/05/09 10:59:56;;;;;;;17.27;10.75;;;20.40;99.90;;;;;;4991264;28;20034;-76
2023/05/09 11:02:27;;;;;;;15.95;10.68;;;20.50;99.90;;;;;;4973247;28;20022;-74
2023/05/09 11:05:13;;;;;;;17.45;10.52;;;20.60;99.90;;;;;;4989788;28;20092;-69
2023/05/09 11:07:39;;;;;;;13.60;10.57;;;20.70;99.90;;;;;;4973750;28;20033;-77
2023/05/09 11:10:13;;;;;;;16.63;9.95;;;20.80;99.90;;;;;;4991736;28;20046;-74
2023/05/09 11:12:59;;;;;;;18.98;11.00;;;20.90;99.90;;;;;;4992537;28;20053;-72
2023/05/09 11:15:26;;;;;;;15.05;10.15;;;21.00;99.90;;;;;;4994714;28;20027;-69
2023/05/09 11:18:11;;;;;;;13.48;10.10;;;21.20;99.90;;;;;;4994643;28;20038;-69
2023/05/09 11:20:44;;;;;;;11.90;10.00;;;21.30;99.90;;;;;;4975756;28;20480;-70
2023/05/09 11:23:10;;;;;;;16.08;11.30;;;21.50;99.90;;;;;;4994992;28;20475;-74
2023/05/09 11:25:38;;;;;;;18.42;10.68;;;21.60;99.90;;;;;;4976739;28;20043;-75
2023/05/09 11:28:05;;;;;;;16.50;10.25;;;21.70;99.90;;;;;;4995046;28;20057;-75
2023/05/09 11:30:42;;;;;;;15.63;10.60;;;21.80;99.90;;;;;;4977101;28;20061;-74
2023/05/09 11:33:27;;;;;;;14.13;9.55;;;21.90;99.90;;;;;;4977455;28;20034;-70
2023/05/09 11:36:28;;;;;;;17.70;9.68;;;21.90;99.90;;;;;;4995079;28;20034;-73
2023/05/09 11:39:03;;;;;;;11.30;9.02;;;21.90;99.90;;;;;;4994753;28;20033;-76
2023/05/09 11:41:29;;;;;;;16.38;10.70;;;21.90;99.90;;;;;;4993322;28;20048;-73
2023/05/09 11:43:55;;;;;;;17.48;11.00;;;22.00;99.90;;;;;;4976584;28;20059;-72
2023/05/09 11:46:21;;;;;;;18.85;10.68;;;22.00;99.90;;;;;;4991642;28;20038;-73
2023/05/09 11:48:48;;;;;;;16.73;9.52;;;22.10;99.90;;;;;;4994353;28;20062;-74
2023/05/09 11:51:17;;;;;;;16.00;9.45;;;22.10;99.90;;;;;;4994091;28;20034;-73
2023/05/09 11:53:45;;;;;;;19.98;10.77;;;22.10;99.90;;;;;;4992577;28;20085;-73
2023/05/09 11:56:13;;;;;;;14.30;9.48;;;22.20;99.90;;;;;;4993518;28;20023;-71
2023/05/09 11:58:39;;;;;;;17.40;9.65;;;22.20;99.90;;;;;;4992711;28;20685;-71
2023/05/09 12:01:05;;;;;;;15.15;10.40;;;22.20;99.90;;;;;;4994197;28;20033;-74
2023/05/09 12:03:32;;;;;;;17.27;9.38;;;22.10;99.90;;;;;;4993347;28;20408;-71
2023/05/09 12:05:57;;;;;;;16.20;9.23;;;22.00;99.90;;;;;;4992603;28;20128;-74
2023/05/09 12:08:24;;;;;;;14.98;8.65;;;21.90;99.90;;;;;;4969707;28;20102;-71
2023/05/09 12:10:50;;;;;;;11.93;8.75;;;21.80;99.90;;;;;;4992780;28;20030;-73
2023/05/09 12:13:16;;;;;;;15.88;8.60;;;21.70;99.90;;;;;;4976364;28;20061;-70
2023/05/09 12:15:42;;;;;;;12.95;8.30;;;21.80;99.90;;;;;;4992778;28;20029;-72
2023/05/09 12:18:08;;;;;;;11.35;8.40;;;21.70;99.90;;;;;;4993502;28;20019;-72
2023/05/09 12:20:46;;;;;;;16.40;8.15;;;21.60;99.90;;;;;;4988932;28;20102;-74
2023/05/09 12:23:13;;;;;;;10.65;7.82;;;21.60;99.90;;;;;;4974328;28;20035;-70
2023/05/09 12:25:45;;;;;;;10.30;7.63;;;21.50;99.90;;;;;;4992566;28;20070;-71
2023/05/09 12:28:10;;;;;;;11.75;7.78;;;21.40;99.90;;;;;;4974104;28;20031;-72
2023/05/09 12:30:36;;;;;;;12.85;8.23;;;21.40;99.90;;;;;;4963422;28;20104;-73
2023/05/09 12:33:02;;;;;;;17.05;9.88;;;21.50;99.90;;;;;;4989740;28;20058;-72
2023/05/09 12:35:28;;;;;;;16.30;8.90;;;21.70;99.90;;;;;;4968251;28;20026;-70
2023/05/09 12:37:55;;;;;;;10.98;8.15;;;21.80;99.90;;;;;;4992182;28;20030;-72
2023/05/09 12:40:21;;;;;;;13.40;8.27;;;21.80;99.90;;;;;;4991327;28;20047;-70